Time;durP1;ratioP1;P1;durP2;ratioP2;P2;SDS_P1;SDS_P2;PMS_P1;PMS_P2;Temp;Humidity;BMP_temperature;BMP_pressure;BME280_temperature;BME280_humidity;BME280_pressure;Samples;Min_cycle;Max_cycle;Signal;HPM_P1;HPM_P2
2022/04/12 00:01:35;;;;;;;15.70;9.32;;;;;;;13.38;42.83;101159.72;4919115;28;20434;-59
2022/04/12 00:04:01;;;;;;;15.30;9.63;;;;;;;13.46;42.44;101157.16;4926042;28;20139;-59
2022/04/12 00:06:27;;;;;;;14.90;9.23;;;;;;;13.55;42.72;101161.56;4914949;28;20039;-60
2022/04/12 00:08:52;;;;;;;15.93;9.88;;;;;;;13.46;43.10;101158.91;4919969;28;20047;-59
2022/04/12 00:11:18;;;;;;;15.82;9.10;;;;;;;13.34;43.02;101170.19;4921370;28;20046;-60
2022/04/12 00:13:43;;;;;;;15.80;9.07;;;;;;;13.24;43.45;101158.75;4928080;28;20032;-61
2022/04/12 00:16:09;;;;;;;16.23;9.23;;;;;;;13.23;43.24;101159.66;4913442;28;20061;-59
2022/04/12 00:21:23;;;;;;;16.45;9.32;;;;;;;13.14;43.61;101167.41;4933383;28;20141;-60
2022/04/12 00:23:48;;;;;;;15.02;9.63;;;;;;;13.19;43.47;101175.28;4926304;28;20035;-60
2022/04/12 00:26:14;;;;;;;17.08;9.90;;;;;;;13.12;43.65;101160.38;4925903;28;20057;-61
2022/04/12 00:28:41;;;;;;;14.02;9.00;;;;;;;13.11;43.94;101163.88;4907859;28;21362;-62
2022/04/12 00:31:07;;;;;;;14.65;9.50;;;;;;;13.11;44.21;101156.91;4925210;28;20051;-58
2022/04/12 00:33:32;;;;;;;16.40;10.27;;;;;;;12.97;44.24;101166.38;4922873;28;20534;-59
2022/04/12 00:36:00;;;;;;;16.45;9.68;;;;;;;13.08;44.02;101162.09;4922181;28;20067;-60
2022/04/12 00:38:27;;;;;;;17.50;9.60;;;;;;;13.05;44.93;101171.69;4923984;28;20035;-61
2022/04/12 00:40:54;;;;;;;16.23;10.20;;;;;;;12.97;44.62;101169.88;4913296;28;20151;-59
2022/04/12 00:43:25;;;;;;;16.38;9.23;;;;;;;12.81;45.22;101165.34;4924598;28;20155;-59
2022/04/12 00:45:50;;;;;;;17.33;10.00;;;;;;;12.68;45.67;101168.75;4923351;28;20039;-60
2022/04/12 00:48:15;;;;;;;17.27;10.30;;;;;;;12.65;45.93;101158.25;4927103;28;20062;-60
2022/04/12 00:50:41;;;;;;;15.30;9.85;;;;;;;12.63;46.12;101161.69;4904573;28;20550;-59
2022/04/12 00:53:08;;;;;;;16.38;9.98;;;;;;;12.53;46.43;101166.84;4921937;28;20117;-60
2022/04/12 00:55:34;;;;;;;18.70;10.10;;;;;;;12.42;46.53;101160.63;4920618;28;20478;-59
2022/04/12 00:58:05;;;;;;;16.33;9.75;;;;;;;12.30;46.67;101154.41;4918820;28;20069;-60
2022/04/12 01:00:31;;;;;;;18.92;9.93;;;;;;;12.33;46.48;101149.19;4917606;28;20497;-58
2022/04/12 01:02:57;;;;;;;17.63;10.27;;;;;;;12.43;46.47;101149.31;4913899;28;20392;-59
2022/04/12 01:05:22;;;;;;;15.80;10.32;;;;;;;12.37;46.45;101159.72;4926252;28;20414;-59
2022/04/12 01:07:47;;;;;;;16.13;9.82;;;;;;;12.37;47.06;101156.22;4916147;28;20051;-59
2022/04/12 01:10:13;;;;;;;17.45;9.88;;;;;;;12.35;46.21;101150.09;4919266;28;20355;-59
2022/04/12 01:12:39;;;;;;;16.77;10.43;;;;;;;12.34;46.73;101143.97;4918889;28;20114;-62
2022/04/12 01:15:12;;;;;;;16.55;9.90;;;;;;;12.46;46.12;101135.38;4915256;28;20578;-60
2022/04/12 01:17:37;;;;;;;19.63;10.13;;;;;;;12.33;46.93;101136.13;4920165;28;20046;-60
2022/04/12 01:20:03;;;;;;;17.58;10.32;;;;;;;12.39;46.33;101137.06;4921074;28;20039;-60
2022/04/12 01:22:30;;;;;;;17.15;10.25;;;;;;;12.20;47.47;101142.94;4921732;28;20215;-59
2022/04/12 01:24:56;;;;;;;16.05;10.40;;;;;;;12.29;47.09;101156.13;4907977;28;20058;-59
2022/04/12 01:27:21;;;;;;;16.38;10.10;;;;;;;12.10;47.33;101152.44;4918099;28;20279;-60
2022/04/12 01:29:48;;;;;;;16.17;10.35;;;;;;;12.18;47.41;101144.69;4918739;28;20145;-59
2022/04/12 01:32:13;;;;;;;16.10;9.82;;;;;;;12.17;47.24;101140.31;4920371;28;20128;-59
2022/04/12 01:34:39;;;;;;;17.63;10.30;;;;;;;12.03;47.36;101137.53;4922235;28;20050;-58
2022/04/12 01:37:05;;;;;;;14.60;9.77;;;;;;;12.12;47.12;101139.38;4922251;28;20051;-59
2022/04/12 01:39:31;;;;;;;16.88;10.43;;;;;;;12.09;46.91;101135.00;4907709;28;20078;-60
2022/04/12 01:41:57;;;;;;;20.13;10.20;;;;;;;12.14;47.31;101127.19;4923496;28;20051;-59
2022/04/12 01:44:22;;;;;;;14.95;9.93;;;;;;;12.16;46.73;101131.59;4918938;28;20456;-59
2022/04/12 01:46:47;;;;;;;17.15;9.68;;;;;;;11.96;47.34;101135.72;4905061;28;20051;-59
2022/04/12 01:49:13;;;;;;;14.93;9.38;;;;;;;11.96;47.42;101130.47;4920929;28;20482;-59
2022/04/12 01:51:38;;;;;;;17.08;9.98;;;;;;;11.98;47.49;101126.16;4922057;28;20043;-60
2022/04/12 01:54:04;;;;;;;15.85;9.85;;;;;;;12.11;46.98;101129.78;4920391;28;21648;-61
2022/04/12 01:56:31;;;;;;;16.15;9.38;;;;;;;12.10;47.06;101128.91;4921437;28;20044;-59
2022/04/12 01:58:57;;;;;;;16.98;9.85;;;;;;;11.92;47.65;101122.59;4911301;28;20059;-60
2022/04/12 02:01:22;;;;;;;14.98;9.68;;;;;;;11.96;47.49;101117.41;4921437;28;20537;-60
2022/04/12 02:03:48;;;;;;;15.95;9.68;;;;;;;11.96;47.73;101127.00;4920666;28;20049;-60
2022/04/12 02:06:13;;;;;;;16.13;9.75;;;;;;;11.87;47.42;101125.16;4921474;28;20289;-60
2022/04/12 02:08:40;;;;;;;15.93;9.43;;;;;;;11.82;47.97;101120.75;4917655;28;20055;-59
2022/04/12 02:11:06;;;;;;;16.02;9.65;;;;;;;11.77;48.31;101125.91;4916505;28;20563;-59
2022/04/12 02:13:32;;;;;;;16.27;9.50;;;;;;;11.70;48.10;101126.66;4923111;28;20051;-59
2022/04/12 02:15:57;;;;;;;15.88;9.63;;;;;;;11.75;47.75;101120.66;4922514;28;20519;-60
2022/04/12 02:18:38;;;;;;;16.25;9.15;;;;;;;11.80;47.80;101118.09;4920696;28;20113;-59
2022/04/12 02:21:04;;;;;;;16.13;9.48;;;;;;;11.83;47.25;101112.94;4918958;28;20043;-60
2022/04/12 02:23:29;;;;;;;16.52;9.30;;;;;;;11.63;48.22;101104.81;4921193;28;20529;-59
2022/04/12 02:25:54;;;;;;;15.77;9.32;;;;;;;11.62;48.14;101097.84;4921867;28;20517;-59
2022/04/12 02:28:20;;;;;;;17.60;9.50;;;;;;;11.65;48.27;101087.41;4922153;28;20118;-59
2022/04/12 02:30:45;;;;;;;15.55;9.48;;;;;;;11.55;48.31;101095.13;4905484;28;20047;-59
2022/04/12 02:33:11;;;;;;;15.25;9.32;;;;;;;11.69;48.06;101080.50;4906671;28;20380;-60
2022/04/12 02:35:36;;;;;;;16.60;9.70;;;;;;;11.64;47.51;101082.19;4917544;28;20118;-59
2022/04/12 02:38:02;;;;;;;14.55;9.07;;;;;;;11.60;48.00;101083.88;4920532;28;20065;-59
2022/04/12 02:40:27;;;;;;;14.05;9.20;;;;;;;11.62;47.62;101083.91;4914272;28;20125;-59
2022/04/12 02:42:52;;;;;;;15.63;8.95;;;;;;;11.62;47.95;101086.50;4917864;28;20641;-60
2022/04/12 02:45:18;;;;;;;15.40;9.57;;;;;;;11.60;48.45;101085.59;4922234;28;20054;-58
2022/04/12 02:47:43;;;;;;;14.27;9.23;;;;;;;11.50;48.07;101076.78;4916123;28;20043;-59
2022/04/12 02:50:08;;;;;;;14.20;9.25;;;;;;;11.59;48.19;101074.28;4916145;28;20101;-58
2022/04/12 02:52:34;;;;;;;14.55;8.90;;;;;;;11.53;48.17;101068.97;4904908;28;20503;-59
2022/04/12 02:54:59;;;;;;;20.92;9.40;;;;;;;11.55;48.26;101071.63;4914006;28;21692;-59
2022/04/12 02:57:25;;;;;;;15.98;9.30;;;;;;;11.53;48.39;101062.88;4914905;28;20062;-59
2022/04/12 02:59:50;;;;;;;15.60;8.98;;;;;;;11.43;48.03;101064.50;4923655;28;20134;-59
2022/04/12 03:02:16;;;;;;;18.02;9.07;;;;;;;11.40;48.07;101074.94;4920770;28;20584;-59
2022/04/12 03:04:42;;;;;;;14.40;9.07;;;;;;;11.26;48.31;101055.59;4911077;28;20043;-59
2022/04/12 03:07:08;;;;;;;16.88;9.43;;;;;;;11.43;48.39;101067.13;4920713;28;20277;-59
2022/04/12 03:09:34;;;;;;;15.52;9.20;;;;;;;11.47;48.29;101068.03;4916262;28;20074;-58
2022/04/12 03:12:00;;;;;;;16.23;8.88;;;;;;;11.52;47.82;101069.84;4920687;28;20055;-59
2022/04/12 03:14:25;;;;;;;14.63;9.15;;;;;;;11.48;47.95;101064.56;4924091;28;20162;-59
2022/04/12 03:16:50;;;;;;;13.75;9.05;;;;;;;11.44;48.34;101073.22;4913191;28;20039;-59
2022/04/12 03:19:16;;;;;;;13.35;8.75;;;;;;;11.39;48.49;101067.94;4914972;28;20047;-59
2022/04/12 03:21:42;;;;;;;14.45;9.05;;;;;;;11.28;48.73;101067.78;4917737;28;20162;-59
2022/04/12 03:24:08;;;;;;;14.85;9.48;;;;;;;11.24;49.08;101062.50;4920009;28;20120;-59
2022/04/12 03:26:35;;;;;;;13.70;9.02;;;;;;;11.09;49.03;101057.09;4918004;28;20433;-58
2022/04/12 03:29:01;;;;;;;13.00;8.82;;;;;;;11.12;48.83;101057.13;4923174;28;20113;-60
2022/04/12 03:31:26;;;;;;;15.88;9.30;;;;;;;11.33;48.91;101058.31;4913251;28;20126;-59
2022/04/12 03:33:51;;;;;;;16.15;9.60;;;;;;;11.37;48.77;101057.47;4910031;28;20942;-59
2022/04/12 03:36:17;;;;;;;20.17;9.30;;;;;;;11.25;49.22;101053.81;4926952;28;20412;-60
2022/04/12 03:38:48;;;;;;;13.18;8.38;;;;;;;11.36;49.02;101045.28;4913667;28;20035;-60
2022/04/12 03:41:23;;;;;;;18.10;9.38;;;;;;;11.37;48.53;101057.47;4927307;28;20127;-60
2022/04/12 03:43:51;;;;;;;14.55;8.85;;;;;;;11.46;48.46;101051.50;4906861;28;20217;-59
2022/04/12 03:46:17;;;;;;;15.57;8.75;;;;;;;11.52;48.65;101064.63;4919934;28;20055;-59
2022/04/12 03:48:43;;;;;;;16.20;8.55;;;;;;;11.51;48.23;101068.09;4917551;28;20070;-60
2022/04/12 03:51:09;;;;;;;15.98;9.00;;;;;;;11.29;48.70;101074.75;4919917;28;20044;-60
2022/04/12 03:53:36;;;;;;;13.70;8.63;;;;;;;11.26;49.26;101071.25;4916222;28;20102;-59
2022/04/12 03:56:04;;;;;;;15.50;8.95;;;;;;;11.02;49.55;101076.13;4912631;28;20077;-58
2022/04/12 03:58:29;;;;;;;14.40;8.82;;;;;;;11.04;49.63;101090.91;4919740;28;20576;-60
2022/04/12 04:00:55;;;;;;;14.43;8.98;;;;;;;11.15;49.49;101085.88;4913187;28;20154;-60
2022/04/12 04:03:21;;;;;;;17.10;9.02;;;;;;;11.09;49.50;101088.41;4930812;28;20039;-59
2022/04/12 04:05:46;;;;;;;15.60;9.30;;;;;;;10.98;50.21;101090.81;4925326;28;20043;-59
2022/04/12 04:08:11;;;;;;;13.93;9.15;;;;;;;11.04;50.03;101079.63;4903983;28;20330;-59
2022/04/12 04:10:37;;;;;;;16.60;9.70;;;;;;;10.99;50.88;101071.72;4919818;28;20039;-58
2022/04/12 04:13:08;;;;;;;15.32;9.73;;;;;;;10.94;50.63;101069.03;4920677;28;20114;-58
2022/04/12 04:15:40;;;;;;;16.25;9.95;;;;;;;10.84;51.40;101059.34;4928784;28;20075;-60
2022/04/12 04:18:08;;;;;;;15.63;9.75;;;;;;;10.93;50.47;101054.25;4896705;28;20400;-59
2022/04/12 04:20:34;;;;;;;16.65;9.48;;;;;;;10.76;51.25;101055.72;4925832;28;20043;-59
2022/04/12 04:23:00;;;;;;;16.27;9.80;;;;;;;10.81;50.85;101053.19;4919466;28;20643;-58
2022/04/12 04:25:26;;;;;;;14.48;9.40;;;;;;;10.78;51.58;101042.72;4914300;28;20247;-59
2022/04/12 04:27:52;;;;;;;14.73;9.27;;;;;;;10.80;51.04;101035.78;4923253;28;20051;-60
2022/04/12 04:30:19;;;;;;;15.65;9.30;;;;;;;10.70;50.89;101032.16;4922330;28;20055;-59
2022/04/12 04:32:45;;;;;;;16.23;8.95;;;;;;;10.75;51.10;101034.84;4918134;28;20075;-59
2022/04/12 04:35:11;;;;;;;16.63;8.40;;;;;;;10.85;50.78;101035.00;4922348;28;20440;-60
2022/04/12 04:37:47;;;;;;;15.70;9.02;;;;;;;10.72;50.64;101034.81;4917210;28;20142;-59
2022/04/12 04:40:20;;;;;;;17.50;9.15;;;;;;;10.56;51.33;101026.72;4921351;28;20039;-60
2022/04/12 04:42:52;;;;;;;15.98;8.77;;;;;;;10.48;51.51;101030.09;4920683;28;20534;-59
2022/04/12 04:45:18;;;;;;;14.43;9.05;;;;;;;10.75;51.05;101022.66;4922102;28;20051;-59
2022/04/12 04:47:58;;;;;;;15.70;9.30;;;;;;;10.87;50.60;101029.81;4924756;28;20759;-59
2022/04/12 04:50:32;;;;;;;15.38;9.15;;;;;;;10.86;51.34;101026.31;4924157;28;20046;-58
2022/04/12 04:52:59;;;;;;;14.00;8.93;;;;;;;10.70;51.15;101031.28;4905480;28;20058;-59
2022/04/12 04:55:25;;;;;;;15.68;9.68;;;;;;;10.70;51.30;101031.28;4911672;28;20051;-59
2022/04/12 04:57:54;;;;;;;13.95;9.05;;;;;;;10.67;52.12;101041.69;4919256;28;20114;-59
2022/04/12 05:00:20;;;;;;;14.23;9.02;;;;;;;10.68;51.86;101035.59;4919078;28;20071;-62
2022/04/12 05:02:48;;;;;;;13.93;9.20;;;;;;;10.75;51.27;101033.09;4899700;28;20058;-59
2022/04/12 05:05:14;;;;;;;15.82;9.18;;;;;;;10.71;51.63;101040.88;4918054;28;20043;-58
2022/04/12 05:07:41;;;;;;;16.42;9.10;;;;;;;10.77;51.50;101040.97;4904174;28;20519;-58
2022/04/12 05:10:08;;;;;;;15.48;9.32;;;;;;;10.59;51.53;101044.16;4920431;28;20051;-59
2022/04/12 05:12:34;;;;;;;15.20;9.20;;;;;;;10.67;51.43;101047.78;4919540;28;20130;-60
2022/04/12 05:15:00;;;;;;;17.92;9.25;;;;;;;10.77;51.02;101054.88;4904203;28;20484;-60
2022/04/12 05:17:27;;;;;;;17.30;9.32;;;;;;;10.70;51.93;101054.75;4913454;28;20043;-60
2022/04/12 05:19:52;;;;;;;16.42;9.38;;;;;;;10.60;51.97;101058.94;4920623;28;20378;-60
2022/04/12 05:22:19;;;;;;;15.63;9.57;;;;;;;10.66;51.52;101059.06;4920860;28;20087;-60
2022/04/12 05:24:47;;;;;;;16.35;9.93;;;;;;;10.75;51.52;101066.13;4915117;28;20057;-58
2022/04/12 05:27:13;;;;;;;16.10;9.35;;;;;;;10.79;51.28;101066.22;4909677;28;20062;-58
2022/04/12 05:29:38;;;;;;;17.02;9.63;;;;;;;10.80;51.49;101069.69;4913109;28;20744;-59
2022/04/12 05:32:04;;;;;;;20.10;9.77;;;;;;;10.70;51.84;101066.06;4920057;28;20075;-57
2022/04/12 05:34:30;;;;;;;16.35;9.30;;;;;;;10.76;51.72;101076.59;4918895;28;20459;-60
2022/04/12 05:36:55;;;;;;;14.40;9.55;;;;;;;10.83;51.39;101059.31;4906970;28;20114;-57
2022/04/12 05:39:21;;;;;;;17.63;9.88;;;;;;;10.83;52.06;101060.19;4921529;28;20113;-58
2022/04/12 05:41:46;;;;;;;15.32;9.75;;;;;;;10.93;51.53;101054.25;4919769;28;21431;-59
2022/04/12 05:44:11;;;;;;;16.08;9.70;;;;;;;10.91;51.90;101053.38;4926390;28;20134;-58
2022/04/12 05:46:37;;;;;;;18.73;10.35;;;;;;;11.12;51.07;101049.28;4921388;28;20054;-59
2022/04/12 05:49:02;;;;;;;16.95;10.00;;;;;;;11.10;50.63;101051.88;4907089;28;20153;-59
2022/04/12 05:51:28;;;;;;;14.02;9.25;;;;;;;11.29;50.97;101064.31;4918701;28;20459;-59
2022/04/12 05:53:53;;;;;;;19.35;10.13;;;;;;;11.17;51.00;101064.16;4916219;28;20051;-58
2022/04/12 05:56:18;;;;;;;19.00;10.13;;;;;;;11.30;51.39;101054.75;4914473;28;20452;-59
2022/04/12 05:58:44;;;;;;;16.50;9.77;;;;;;;11.09;50.92;101046.66;4913841;28;20579;-59
2022/04/12 06:01:09;;;;;;;16.92;10.07;;;;;;;11.24;51.34;101042.50;4923982;28;20349;-59
2022/04/12 06:03:34;;;;;;;14.07;9.63;;;;;;;11.31;50.33;101046.94;4908830;28;20434;-61
2022/04/12 06:06:00;;;;;;;17.58;10.02;;;;;;;11.42;50.20;101054.91;4917816;28;20510;-59
2022/04/12 06:08:25;;;;;;;14.38;9.80;;;;;;;11.68;49.95;101048.28;4922631;28;20054;-59
2022/04/12 06:10:51;;;;;;;16.60;9.52;;;;;;;12.01;49.26;101054.78;4917563;28;20035;-59
2022/04/12 06:13:16;;;;;;;14.00;9.75;;;;;;;12.29;48.44;101048.06;4922937;28;20654;-60
2022/04/12 06:15:42;;;;;;;16.52;9.35;;;;;;;13.13;46.63;101053.09;4918133;28;20035;-60
2022/04/12 06:18:07;;;;;;;17.70;9.82;;;;;;;13.61;45.05;101051.56;4923206;28;20042;-59
2022/04/12 06:20:34;;;;;;;17.52;9.77;;;;;;;14.33;43.99;101056.16;4901345;28;20039;-62
2022/04/12 06:22:59;;;;;;;15.38;9.15;;;;;;;14.82;42.03;101056.19;4914820;28;20089;-59
2022/04/12 06:25:24;;;;;;;15.88;8.85;;;;;;;14.93;41.66;101062.28;4924457;28;20035;-58
2022/04/12 06:27:51;;;;;;;17.65;9.80;;;;;;;14.99;42.72;101059.66;4915352;28;20576;-60
2022/04/12 06:30:19;;;;;;;14.65;9.27;;;;;;;15.06;41.39;101052.63;4920695;28;20056;-60
2022/04/12 06:32:45;;;;;;;15.10;9.80;;;;;;;14.65;42.57;101052.66;4897995;28;20047;-60
2022/04/12 06:35:12;;;;;;;17.08;10.05;;;;;;;14.99;42.02;101059.66;4923238;28;20388;-59
2022/04/12 06:37:40;;;;;;;17.77;9.90;;;;;;;15.07;41.65;101060.47;4911609;28;20538;-58
2022/04/12 06:40:08;;;;;;;15.93;9.95;;;;;;;15.24;41.60;101052.59;4915106;28;20049;-59
2022/04/12 06:42:34;;;;;;;16.08;9.73;;;;;;;15.79;40.57;101050.66;4910900;28;20474;-59
2022/04/12 06:44:59;;;;;;;17.05;9.82;;;;;;;16.11;39.96;101032.03;4926094;28;20055;-59
2022/04/12 06:47:25;;;;;;;14.15;9.90;;;;;;;16.84;38.07;101031.47;4912025;28;20123;-59
2022/04/12 06:49:51;;;;;;;14.48;9.63;;;;;;;16.76;38.70;101041.22;4906222;28;20132;-59
2022/04/12 06:52:19;;;;;;;13.15;10.00;;;;;;;16.47;38.45;101031.75;4926141;28;20039;-59
2022/04/12 06:54:44;;;;;;;17.23;9.70;;;;;;;16.13;40.14;101036.41;4908872;28;20051;-60
2022/04/12 06:57:10;;;;;;;13.68;10.10;;;;;;;16.19;39.36;101027.59;4911413;28;20054;-59
2022/04/12 06:59:35;;;;;;;16.27;9.93;;;;;;;16.33;39.78;101035.41;4913225;28;20054;-59
2022/04/12 07:02:01;;;;;;;17.38;10.35;;;;;;;16.51;39.45;101032.63;4916657;28;20109;-59
2022/04/12 07:04:31;;;;;;;15.60;10.00;;;;;;;16.51;38.64;101025.59;4918899;28;20131;-58
2022/04/12 07:06:58;;;;;;;16.65;10.00;;;;;;;16.20;39.48;101019.72;4911148;28;20058;-60
2022/04/12 07:09:24;;;;;;;14.05;9.77;;;;;;;16.56;40.38;101029.06;4918652;28;20196;-59
2022/04/12 07:11:50;;;;;;;17.77;10.32;;;;;;;17.24;38.09;101024.03;4902346;28;20059;-60
2022/04/12 07:14:15;;;;;;;19.10;10.50;;;;;;;17.23;38.26;101033.69;4907172;28;20446;-59
2022/04/12 07:16:41;;;;;;;15.77;9.55;;;;;;;17.29;37.99;101032.75;4913222;28;20047;-60
2022/04/12 07:19:06;;;;;;;13.50;9.88;;;;;;;17.34;38.53;101036.19;4912818;28;20040;-59
2022/04/12 07:21:32;;;;;;;16.10;10.18;;;;;;;16.81;38.41;101050.81;4915580;28;20102;-59
2022/04/12 07:24:03;;;;;;;14.88;9.95;;;;;;;16.90;39.35;101048.06;4919989;28;20683;-60
2022/04/12 07:26:28;;;;;;;17.02;10.27;;;;;;;17.13;38.42;101047.88;4923473;28;20056;-60
2022/04/12 07:28:54;;;;;;;13.60;9.88;;;;;;;17.20;38.95;101043.41;4910270;28;20249;-59
2022/04/12 07:31:19;;;;;;;15.40;9.90;;;;;;;17.60;39.23;101035.88;4921356;28;20486;-59
2022/04/12 07:33:45;;;;;;;14.82;9.45;;;;;;;16.88;38.74;101028.81;4936655;28;20043;-58
2022/04/12 07:36:10;;;;;;;15.48;10.20;;;;;;;17.10;39.00;101024.16;4919277;28;20381;-59
2022/04/12 07:38:36;;;;;;;16.92;10.50;;;;;;;16.89;39.06;101035.81;4910376;28;20447;-59
2022/04/12 07:41:01;;;;;;;18.40;10.82;;;;;;;17.50;39.18;101026.34;4913666;28;20047;-60
2022/04/12 07:43:26;;;;;;;14.63;10.40;;;;;;;17.92;38.35;101025.81;4921024;28;20138;-59
2022/04/12 07:45:52;;;;;;;17.50;10.50;;;;;;;18.11;38.08;101021.13;4919026;28;20047;-59
2022/04/12 07:48:17;;;;;;;15.43;10.18;;;;;;;18.68;36.31;101024.63;4922443;28;20248;-59
2022/04/12 07:50:43;;;;;;;15.30;10.35;;;;;;;19.22;36.46;101019.19;4914050;28;20365;-59
2022/04/12 07:53:08;;;;;;;14.50;10.05;;;;;;;18.68;36.69;101015.81;4919538;28;20497;-59
2022/04/12 07:55:34;;;;;;;13.57;9.90;;;;;;;18.37;37.02;101012.78;4918785;28;20046;-60
2022/04/12 07:57:59;;;;;;;15.05;10.43;;;;;;;18.20;37.98;101013.06;4919467;28;20640;-60
2022/04/12 08:00:25;;;;;;;18.10;10.10;;;;;;;18.56;37.10;101015.13;4917479;28;20442;-59
2022/04/12 08:02:50;;;;;;;15.48;10.13;;;;;;;17.62;38.46;101026.22;4913068;28;20478;-60
2022/04/12 08:05:16;;;;;;;14.50;10.30;;;;;;;17.22;39.83;101036.34;4917267;28;20288;-59
2022/04/12 08:07:47;;;;;;;16.52;10.88;;;;;;;17.16;40.59;101037.28;4917392;28;20808;-58
2022/04/12 08:10:15;;;;;;;16.55;10.52;;;;;;;16.40;41.37;101043.25;4919535;28;20494;-59
2022/04/12 08:12:40;;;;;;;15.65;10.15;;;;;;;16.68;42.21;101041.28;4918313;28;20035;-59
2022/04/12 08:15:06;;;;;;;17.70;10.65;;;;;;;16.72;42.03;101042.97;4926351;28;20044;-59
2022/04/12 08:17:31;;;;;;;18.88;10.75;;;;;;;16.44;42.02;101041.44;4914702;28;20078;-59
2022/04/12 08:19:57;;;;;;;16.05;10.98;;;;;;;16.58;43.01;101039.59;4926247;28;20502;-60
2022/04/12 08:22:22;;;;;;;15.15;10.50;;;;;;;17.16;41.75;101049.56;4922937;28;20514;-59
2022/04/12 08:24:47;;;;;;;15.95;10.63;;;;;;;17.49;41.35;101043.94;4912831;28;20114;-59
2022/04/12 08:27:13;;;;;;;16.27;9.90;;;;;;;17.07;40.85;101057.59;4915865;28;20043;-59
2022/04/12 08:29:39;;;;;;;14.77;10.00;;;;;;;17.30;41.34;101051.19;4924648;28;20046;-61
2022/04/12 08:32:05;;;;;;;18.30;10.20;;;;;;;17.77;41.01;101047.97;4929533;28;20561;-59
2022/04/12 08:34:31;;;;;;;15.88;10.05;;;;;;;17.76;39.61;101042.72;4920766;28;20051;-59
2022/04/12 08:36:56;;;;;;;15.55;9.75;;;;;;;17.58;40.63;101035.00;4918339;28;20342;-60
2022/04/12 08:39:21;;;;;;;14.80;10.02;;;;;;;17.50;40.12;101047.44;4924646;28;20071;-59
2022/04/12 08:41:47;;;;;;;16.48;10.13;;;;;;;17.61;40.40;101043.81;4924729;28;20043;-60
2022/04/12 08:44:17;;;;;;;16.75;9.50;;;;;;;17.68;40.25;101026.16;4923972;28;20043;-61
2022/04/12 08:46:44;;;;;;;16.70;9.88;;;;;;;17.77;39.84;101029.53;4915607;28;20415;-59
2022/04/12 08:49:09;;;;;;;13.52;9.68;;;;;;;17.51;40.87;101026.31;4924156;28;20554;-59
2022/04/12 08:51:36;;;;;;;14.25;9.32;;;;;;;17.91;40.83;101020.56;4910138;28;20035;-58
2022/04/12 08:54:06;;;;;;;14.20;9.60;;;;;;;18.47;39.94;101020.56;4927793;28;20135;-59
2022/04/12 08:56:32;;;;;;;19.80;9.82;;;;;;;18.51;38.81;101018.72;4922098;28;20513;-59
2022/04/12 08:58:58;;;;;;;15.77;9.75;;;;;;;18.28;39.39;101007.69;4920531;28;20355;-60
2022/04/12 09:01:24;;;;;;;15.45;9.68;;;;;;;18.08;39.59;101008.84;4922184;28;20170;-61
2022/04/12 09:03:49;;;;;;;17.95;9.35;;;;;;;18.09;39.45;101000.03;4920166;28;20479;-59
2022/04/12 09:06:14;;;;;;;15.52;9.77;;;;;;;18.37;39.59;100986.38;4917599;28;20402;-60
2022/04/12 09:08:40;;;;;;;15.45;9.27;;;;;;;18.67;39.48;100982.38;4917181;28;20122;-59
2022/04/12 09:11:08;;;;;;;14.45;10.10;;;;;;;18.63;38.95;100985.09;4918721;28;20043;-60
2022/04/12 09:13:35;;;;;;;16.15;10.50;;;;;;;18.72;39.63;100984.06;4923029;28;20047;-59
2022/04/12 09:16:06;;;;;;;16.27;10.07;;;;;;;18.88;38.60;100990.78;4923893;28;20518;-60
2022/04/12 09:18:35;;;;;;;18.95;10.02;;;;;;;19.20;37.90;100984.88;4916876;28;20125;-60
2022/04/12 09:21:11;;;;;;;18.27;10.00;;;;;;;19.11;38.52;100977.13;4921433;28;20082;-59
2022/04/12 09:23:37;;;;;;;13.77;9.85;;;;;;;19.51;38.25;100977.22;4921143;28;20047;-59
2022/04/12 09:26:02;;;;;;;16.05;9.80;;;;;;;19.72;38.58;100975.88;4924337;28;20122;-59
2022/04/12 09:28:41;;;;;;;16.83;10.57;;;;;;;19.77;37.59;100977.50;4913826;28;20050;-59
2022/04/12 09:31:18;;;;;;;15.27;10.45;;;;;;;19.82;37.78;100982.72;4925506;28;20058;-60
2022/04/12 09:33:45;;;;;;;15.27;10.50;;;;;;;19.99;38.13;100975.25;4922076;28;20046;-59
2022/04/12 09:36:11;;;;;;;15.80;10.15;;;;;;;19.86;38.96;100992.31;4911375;28;20345;-59
2022/04/12 09:38:39;;;;;;;15.50;10.35;;;;;;;19.94;37.86;100982.44;4918480;28;20750;-58
2022/04/12 09:41:19;;;;;;;13.68;10.18;;;;;;;19.72;38.70;100979.38;4922214;28;20302;-59
2022/04/12 09:43:54;;;;;;;14.27;9.90;;;;;;;20.29;39.44;100980.69;4921327;28;20558;-58
2022/04/12 09:46:20;;;;;;;15.05;10.48;;;;;;;19.83;37.76;100987.94;4911776;28;20074;-58
2022/04/12 09:48:50;;;;;;;15.68;10.68;;;;;;;19.92;37.94;100976.28;4911924;28;20159;-58
2022/04/12 09:51:17;;;;;;;15.57;10.00;;;;;;;20.03;38.30;100974.25;4924363;28;20078;-59
2022/04/12 09:53:45;;;;;;;16.33;10.10;;;;;;;20.24;38.38;100968.44;4916338;28;20061;-59
2022/04/12 09:56:30;;;;;;;19.95;10.40;;;;;;;20.71;36.64;100969.03;4923684;28;20055;-58
2022/04/12 09:58:57;;;;;;;16.98;10.10;;;;;;;20.78;36.91;100962.66;4907474;28;20663;-59
2022/04/12 10:01:23;;;;;;;15.48;9.60;;;;;;;21.05;36.81;100956.56;4919214;28;21944;-59
2022/04/12 10:03:57;;;;;;;15.13;9.70;;;;;;;20.85;36.66;100947.47;4920744;28;20053;-60
2022/04/12 10:06:24;;;;;;;14.35;9.55;;;;;;;20.72;38.10;100948.69;4922987;28;20246;-58
2022/04/12 10:08:59;;;;;;;15.13;9.77;;;;;;;20.34;37.68;100947.06;4915847;28;20129;-59
2022/04/12 10:11:24;;;;;;;15.32;9.15;;;;;;;20.58;36.80;100934.03;4919429;28;20051;-59
2022/04/12 10:13:51;;;;;;;14.00;9.75;;;;;;;20.47;38.40;100930.81;4921127;28;20548;-59
2022/04/12 10:16:19;;;;;;;13.38;9.20;;;;;;;20.29;38.59;100923.31;4925404;28;20042;-59
2022/04/12 10:18:45;;;;;;;14.98;9.45;;;;;;;20.10;38.22;100904.38;4906089;28;20784;-60
2022/04/12 10:21:14;;;;;;;12.63;9.30;;;;;;;19.85;39.39;100914.69;4912482;28;20130;-59
2022/04/12 10:23:43;;;;;;;13.43;8.65;;;;;;;19.91;39.10;100916.31;4919157;28;20377;-59
2022/04/12 10:26:10;;;;;;;11.48;8.60;;;;;;;20.18;39.32;100926.25;4917400;28;20471;-59
2022/04/12 10:28:37;;;;;;;16.80;8.82;;;;;;;20.27;38.64;100920.69;4920620;28;20153;-59
2022/04/12 10:31:15;;;;;;;12.15;8.18;;;;;;;20.51;39.73;100921.00;4904628;28;20043;-59
2022/04/12 10:33:49;;;;;;;13.57;8.70;;;;;;;20.34;38.62;100920.56;4916751;28;20043;-59
2022/04/12 10:36:14;;;;;;;12.95;8.30;;;;;;;20.25;39.41;100925.16;4917119;28;20123;-58
2022/04/12 10:38:42;;;;;;;13.48;8.80;;;;;;;20.37;39.68;100923.16;4906070;28;20047;-58
2022/04/12 10:41:24;;;;;;;15.43;8.93;;;;;;;20.56;39.23;100925.25;4922348;28;20051;-58
2022/04/12 10:43:56;;;;;;;12.98;8.57;;;;;;;20.49;38.84;100922.84;4926721;28;20049;-58
2022/04/12 10:46:21;;;;;;;13.68;8.90;;;;;;;20.61;39.24;100919.88;4917358;28;20031;-59
2022/04/12 10:48:55;;;;;;;16.33;8.63;;;;;;;20.14;40.09;100916.63;4912320;28;20089;-59
2022/04/12 10:51:36;;;;;;;15.02;8.30;;;;;;;20.39;39.45;100903.66;4917157;28;20129;-58
2022/04/12 10:54:02;;;;;;;15.23;8.73;;;;;;;20.40;39.50;100912.47;4917587;28;20167;-59
2022/04/12 10:56:27;;;;;;;12.18;8.38;;;;;;;20.78;39.21;100919.38;4900349;28;20109;-60
2022/04/12 10:58:53;;;;;;;15.35;8.40;;;;;;;20.89;39.38;100917.31;4910191;28;20825;-60
2022/04/12 11:01:35;;;;;;;15.05;8.70;;;;;;;20.97;39.08;100933.88;4924616;28;20157;-59
2022/04/12 11:04:03;;;;;;;14.02;8.43;;;;;;;21.06;38.33;100918.56;4925498;28;20050;-59
2022/04/12 11:06:34;;;;;;;16.27;8.10;;;;;;;21.19;38.20;100907.63;4912256;28;20122;-59
2022/04/12 11:09:09;;;;;;;12.13;8.18;;;;;;;20.98;38.64;100909.94;4914878;28;20495;-60
2022/04/12 11:11:42;;;;;;;13.65;8.57;;;;;;;21.09;38.07;100888.44;4922695;28;20070;-60
2022/04/12 11:14:28;;;;;;;15.13;7.78;;;;;;;21.50;38.80;100891.66;4919209;28;20120;-59
2022/04/12 11:16:58;;;;;;;13.00;8.50;;;;;;;20.77;38.35;100884.06;4914586;28;20372;-60